sensor_id;sensor_type;location;lat;lon;timestamp;P1;durP1;ratioP1;P2;durP2;ratioP2
24249;SDS011;12379;49.820;8.648;2023-01-01T00:00:06;4.87;;;4.53;;
24249;SDS011;12379;49.820;8.648;2023-01-01T00:02:32;2.27;;;2.17;;
24249;SDS011;12379;49.820;8.648;2023-01-01T00:04:58;3.77;;;1.90;;
24249;SDS011;12379;49.820;8.648;2023-01-01T00:07:24;2.10;;;1.90;;
24249;SDS011;12379;49.820;8.648;2023-01-01T00:09:49;2.70;;;2.60;;
24249;SDS011;12379;49.820;8.648;2023-01-01T00:12:33;2.53;;;1.43;;
24249;SDS011;12379;49.820;8.648;2023-01-01T00:14:59;4.83;;;3.57;;
24249;SDS011;12379;49.820;8.648;2023-01-01T00:17:25;7.57;;;6.17;;
24249;SDS011;12379;49.820;8.648;2023-01-01T00:19:52;5.93;;;3.27;;
24249;SDS011;12379;49.820;8.648;2023-01-01T00:22:18;7.53;;;4.67;;
24249;SDS011;12379;49.820;8.648;2023-01-01T00:24:43;8.47;;;3.07;;
24249;SDS011;12379;49.820;8.648;2023-01-01T00:27:09;8.97;;;5.10;;
24249;SDS011;12379;49.820;8.648;2023-01-01T00:29:38;5.07;;;3.40;;
24249;SDS011;12379;49.820;8.648;2023-01-01T00:32:04;4.00;;;3.20;;
24249;SDS011;12379;49.820;8.648;2023-01-01T00:34:29;9.17;;;5.27;;
24249;SDS011;12379;49.820;8.648;2023-01-01T00:36:55;10.17;;;5.83;;
24249;SDS011;12379;49.820;8.648;2023-01-01T00:39:21;2.97;;;2.57;;
24249;SDS011;12379;49.820;8.648;2023-01-01T00:41:47;14.43;;;4.57;;
24249;SDS011;12379;49.820;8.648;2023-01-01T00:44:13;12.97;;;3.80;;
24249;SDS011;12379;49.820;8.648;2023-01-01T00:46:38;9.77;;;3.67;;
24249;SDS011;12379;49.820;8.648;2023-01-01T00:49:04;21.37;;;4.10;;
24249;SDS011;12379;49.820;8.648;2023-01-01T00:51:29;5.27;;;4.97;;
24249;SDS011;12379;49.820;8.648;2023-01-01T00:53:55;3.50;;;3.20;;
24249;SDS011;12379;49.820;8.648;2023-01-01T00:56:21;4.10;;;3.87;;
24249;SDS011;12379;49.820;8.648;2023-01-01T00:58:46;4.73;;;2.23;;
24249;SDS011;12379;49.820;8.648;2023-01-01T01:01:12;2.23;;;2.10;;
24249;SDS011;12379;49.820;8.648;2023-01-01T01:03:37;5.50;;;3.13;;
24249;SDS011;12379;49.820;8.648;2023-01-01T01:08:30;4.53;;;4.07;;
24249;SDS011;12379;49.820;8.648;2023-01-01T01:11:07;6.60;;;2.97;;
24249;SDS011;12379;49.820;8.648;2023-01-01T01:13:36;6.70;;;3.40;;
24249;SDS011;12379;49.820;8.648;2023-01-01T01:16:09;3.40;;;2.30;;
24249;SDS011;12379;49.820;8.648;2023-01-01T01:18:40;2.43;;;2.23;;
24249;SDS011;12379;49.820;8.648;2023-01-01T01:21:06;3.43;;;1.67;;
24249;SDS011;12379;49.820;8.648;2023-01-01T01:23:32;3.10;;;2.70;;
24249;SDS011;12379;49.820;8.648;2023-01-01T01:26:32;2.63;;;2.30;;
24249;SDS011;12379;49.820;8.648;2023-01-01T01:28:52;4.93;;;1.93;;
24249;SDS011;12379;49.820;8.648;2023-01-01T01:31:18;2.53;;;2.30;;
24249;SDS011;12379;49.820;8.648;2023-01-01T01:33:45;1.63;;;1.53;;
24249;SDS011;12379;49.820;8.648;2023-01-01T01:36:12;0.93;;;0.93;;
24249;SDS011;12379;49.820;8.648;2023-01-01T01:38:39;8.30;;;2.73;;
24249;SDS011;12379;49.820;8.648;2023-01-01T01:41:05;0.70;;;0.70;;
24249;SDS011;12379;49.820;8.648;2023-01-01T01:46:00;1.50;;;1.33;;
24249;SDS011;12379;49.820;8.648;2023-01-01T01:48:34;4.80;;;1.77;;
24249;SDS011;12379;49.820;8.648;2023-01-01T01:51:02;3.70;;;2.20;;
24249;SDS011;12379;49.820;8.648;2023-01-01T01:53:31;2.40;;;2.20;;
24249;SDS011;12379;49.820;8.648;2023-01-01T01:56:00;1.73;;;1.63;;
24249;SDS011;12379;49.820;8.648;2023-01-01T01:58:34;3.10;;;1.70;;
24249;SDS011;12379;49.820;8.648;2023-01-01T02:01:00;4.20;;;1.00;;
24249;SDS011;12379;49.820;8.648;2023-01-01T02:05:57;0.77;;;0.77;;
24249;SDS011;12379;49.820;8.648;2023-01-01T02:08:23;1.10;;;1.10;;
24249;SDS011;12379;49.820;8.648;2023-01-01T02:10:49;1.53;;;1.43;;
24249;SDS011;12379;49.820;8.648;2023-01-01T02:13:15;3.43;;;1.37;;
24249;SDS011;12379;49.820;8.648;2023-01-01T02:15:53;0.90;;;0.90;;
24249;SDS011;12379;49.820;8.648;2023-01-01T02:18:28;0.80;;;0.80;;
24249;SDS011;12379;49.820;8.648;2023-01-01T02:21:07;0.60;;;0.60;;
24249;SDS011;12379;49.820;8.648;2023-01-01T02:23:54;1.17;;;0.80;;
24249;SDS011;12379;49.820;8.648;2023-01-01T02:29:53;1.20;;;1.10;;
24249;SDS011;12379;49.820;8.648;2023-01-01T02:33:03;1.33;;;1.23;;
24249;SDS011;12379;49.820;8.648;2023-01-01T02:35:36;1.03;;;1.03;;
24249;SDS011;12379;49.820;8.648;2023-01-01T02:38:10;1.10;;;1.03;;
24249;SDS011;12379;49.820;8.648;2023-01-01T02:40:43;0.60;;;0.60;;
24249;SDS011;12379;49.820;8.648;2023-01-01T02:43:12;0.60;;;0.60;;
24249;SDS011;12379;49.820;8.648;2023-01-01T02:45:38;1.80;;;0.80;;
24249;SDS011;12379;49.820;8.648;2023-01-01T02:48:05;2.37;;;1.47;;
24249;SDS011;12379;49.820;8.648;2023-01-01T02:50:51;1.23;;;1.00;;
24249;SDS011;12379;49.820;8.648;2023-01-01T02:56:07;1.17;;;1.00;;
24249;SDS011;12379;49.820;8.648;2023-01-01T02:58:51;1.00;;;0.90;;
24249;SDS011;12379;49.820;8.648;2023-01-01T03:02:35;1.03;;;1.00;;
24249;SDS011;12379;49.820;8.648;2023-01-01T03:05:02;0.50;;;0.50;;
24249;SDS011;12379;49.820;8.648;2023-01-01T03:10:40;1.70;;;0.97;;
24249;SDS011;12379;49.820;8.648;2023-01-01T03:13:32;0.63;;;0.57;;
24249;SDS011;12379;49.820;8.648;2023-01-01T03:19:21;0.60;;;0.60;;
24249;SDS011;12379;49.820;8.648;2023-01-01T03:24:19;1.53;;;1.43;;
24249;SDS011;12379;49.820;8.648;2023-01-01T03:26:56;1.17;;;1.07;;
24249;SDS011;12379;49.820;8.648;2023-01-01T03:29:26;1.60;;;1.57;;
24249;SDS011;12379;49.820;8.648;2023-01-01T03:31:56;1.07;;;1.07;;
24249;SDS011;12379;49.820;8.648;2023-01-01T03:34:26;8.37;;;1.23;;
24249;SDS011;12379;49.820;8.648;2023-01-01T03:36:55;1.67;;;1.57;;
24249;SDS011;12379;49.820;8.648;2023-01-01T03:39:37;1.50;;;1.40;;
24249;SDS011;12379;49.820;8.648;2023-01-01T03:42:14;2.50;;;1.20;;
24249;SDS011;12379;49.820;8.648;2023-01-01T03:44:48;4.13;;;1.37;;
24249;SDS011;12379;49.820;8.648;2023-01-01T03:47:17;0.60;;;0.60;;
24249;SDS011;12379;49.820;8.648;2023-01-01T03:49:44;2.00;;;0.80;;
24249;SDS011;12379;49.820;8.648;2023-01-01T04:00:11;1.67;;;1.67;;
24249;SDS011;12379;49.820;8.648;2023-01-01T04:02:49;0.50;;;0.50;;
24249;SDS011;12379;49.820;8.648;2023-01-01T04:05:20;0.60;;;0.50;;
24249;SDS011;12379;49.820;8.648;2023-01-01T04:07:46;0.50;;;0.50;;
24249;SDS011;12379;49.820;8.648;2023-01-01T04:10:13;0.60;;;0.60;;
24249;SDS011;12379;49.820;8.648;2023-01-01T04:12:52;0.77;;;0.77;;
24249;SDS011;12379;49.820;8.648;2023-01-01T04:15:23;1.13;;;1.13;;
24249;SDS011;12379;49.820;8.648;2023-01-01T04:17:51;2.93;;;1.33;;
24249;SDS011;12379;49.820;8.648;2023-01-01T04:20:17;0.53;;;0.53;;
24249;SDS011;12379;49.820;8.648;2023-01-01T04:22:44;0.60;;;0.60;;
24249;SDS011;12379;49.820;8.648;2023-01-01T04:25:10;2.00;;;0.90;;
24249;SDS011;12379;49.820;8.648;2023-01-01T04:27:36;0.43;;;0.43;;
24249;SDS011;12379;49.820;8.648;2023-01-01T04:30:03;1.00;;;0.90;;
24249;SDS011;12379;49.820;8.648;2023-01-01T04:32:30;1.13;;;1.03;;
24249;SDS011;12379;49.820;8.648;2023-01-01T04:34:55;0.87;;;0.87;;
24249;SDS011;12379;49.820;8.648;2023-01-01T04:37:21;4.07;;;1.03;;
24249;SDS011;12379;49.820;8.648;2023-01-01T04:39:47;0.67;;;0.67;;
24249;SDS011;12379;49.820;8.648;2023-01-01T04:42:12;0.70;;;0.70;;
24249;SDS011;12379;49.820;8.648;2023-01-01T04:44:38;1.47;;;1.37;;
24249;SDS011;12379;49.820;8.648;2023-01-01T04:47:03;0.70;;;0.67;;
24249;SDS011;12379;49.820;8.648;2023-01-01T04:49:29;0.40;;;0.40;;
24249;SDS011;12379;49.820;8.648;2023-01-01T04:51:55;0.83;;;0.83;;
24249;SDS011;12379;49.820;8.648;2023-01-01T04:54:20;1.83;;;1.73;;
24249;SDS011;12379;49.820;8.648;2023-01-01T04:56:46;3.43;;;1.47;;
24249;SDS011;12379;49.820;8.648;2023-01-01T04:59:11;1.20;;;0.80;;
24249;SDS011;12379;49.820;8.648;2023-01-01T05:01:37;1.00;;;1.00;;
24249;SDS011;12379;49.820;8.648;2023-01-01T05:04:02;2.00;;;1.13;;
24249;SDS011;12379;49.820;8.648;2023-01-01T05:06:28;0.90;;;0.70;;
24249;SDS011;12379;49.820;8.648;2023-01-01T05:08:54;1.80;;;0.80;;
24249;SDS011;12379;49.820;8.648;2023-01-01T05:11:22;2.67;;;1.37;;
24249;SDS011;12379;49.820;8.648;2023-01-01T05:13:50;0.90;;;0.90;;
24249;SDS011;12379;49.820;8.648;2023-01-01T05:16:19;1.00;;;0.70;;
24249;SDS011;12379;49.820;8.648;2023-01-01T05:18:46;0.80;;;0.80;;
24249;SDS011;12379;49.820;8.648;2023-01-01T05:21:13;1.70;;;0.97;;
24249;SDS011;12379;49.820;8.648;2023-01-01T05:23:40;1.80;;;1.70;;
24249;SDS011;12379;49.820;8.648;2023-01-01T05:26:17;0.50;;;0.50;;
24249;SDS011;12379;49.820;8.648;2023-01-01T05:28:44;0.83;;;0.80;;
24249;SDS011;12379;49.820;8.648;2023-01-01T05:31:18;2.77;;;1.00;;
24249;SDS011;12379;49.820;8.648;2023-01-01T05:33:45;1.10;;;0.80;;
24249;SDS011;12379;49.820;8.648;2023-01-01T05:36:15;2.47;;;1.80;;
24249;SDS011;12379;49.820;8.648;2023-01-01T05:38:42;0.60;;;0.60;;
24249;SDS011;12379;49.820;8.648;2023-01-01T05:41:09;0.77;;;0.77;;
24249;SDS011;12379;49.820;8.648;2023-01-01T05:43:36;1.00;;;1.00;;
24249;SDS011;12379;49.820;8.648;2023-01-01T05:46:03;0.60;;;0.60;;
24249;SDS011;12379;49.820;8.648;2023-01-01T05:48:30;2.20;;;1.03;;
24249;SDS011;12379;49.820;8.648;2023-01-01T05:51:00;6.03;;;0.80;;
24249;SDS011;12379;49.820;8.648;2023-01-01T05:53:33;0.67;;;0.67;;
24249;SDS011;12379;49.820;8.648;2023-01-01T05:55:59;0.80;;;0.80;;
24249;SDS011;12379;49.820;8.648;2023-01-01T05:58:25;6.23;;;2.47;;
24249;SDS011;12379;49.820;8.648;2023-01-01T06:00:51;0.60;;;0.60;;
24249;SDS011;12379;49.820;8.648;2023-01-01T06:03:18;1.80;;;1.27;;
24249;SDS011;12379;49.820;8.648;2023-01-01T06:05:44;1.97;;;0.70;;
24249;SDS011;12379;49.820;8.648;2023-01-01T06:08:09;4.23;;;1.97;;
24249;SDS011;12379;49.820;8.648;2023-01-01T06:10:35;1.67;;;1.57;;
24249;SDS011;12379;49.820;8.648;2023-01-01T06:13:00;2.77;;;2.53;;
24249;SDS011;12379;49.820;8.648;2023-01-01T06:15:26;10.10;;;2.20;;
24249;SDS011;12379;49.820;8.648;2023-01-01T06:17:52;3.23;;;1.93;;
24249;SDS011;12379;49.820;8.648;2023-01-01T06:20:18;1.90;;;1.33;;
24249;SDS011;12379;49.820;8.648;2023-01-01T06:22:44;0.60;;;0.60;;
24249;SDS011;12379;49.820;8.648;2023-01-01T06:25:10;1.07;;;0.80;;
24249;SDS011;12379;49.820;8.648;2023-01-01T06:27:36;0.90;;;0.90;;
24249;SDS011;12379;49.820;8.648;2023-01-01T06:30:03;1.27;;;1.27;;
24249;SDS011;12379;49.820;8.648;2023-01-01T06:32:29;0.70;;;0.70;;
24249;SDS011;12379;49.820;8.648;2023-01-01T06:34:55;0.60;;;0.60;;
24249;SDS011;12379;49.820;8.648;2023-01-01T06:37:21;0.90;;;0.80;;
24249;SDS011;12379;49.820;8.648;2023-01-01T06:42:56;0.50;;;0.50;;
24249;SDS011;12379;49.820;8.648;2023-01-01T06:45:21;0.70;;;0.70;;
24249;SDS011;12379;49.820;8.648;2023-01-01T06:51:34;0.50;;;0.50;;
24249;SDS011;12379;49.820;8.648;2023-01-01T06:54:19;4.13;;;0.87;;
24249;SDS011;12379;49.820;8.648;2023-01-01T06:56:45;1.03;;;0.90;;
24249;SDS011;12379;49.820;8.648;2023-01-01T06:59:10;1.37;;;1.27;;
24249;SDS011;12379;49.820;8.648;2023-01-01T07:01:36;0.87;;;0.70;;
24249;SDS011;12379;49.820;8.648;2023-01-01T07:04:06;0.73;;;0.73;;
24249;SDS011;12379;49.820;8.648;2023-01-01T07:06:35;1.67;;;1.10;;
24249;SDS011;12379;49.820;8.648;2023-01-01T07:09:01;0.87;;;0.60;;
24249;SDS011;12379;49.820;8.648;2023-01-01T07:11:28;0.50;;;0.50;;
24249;SDS011;12379;49.820;8.648;2023-01-01T07:13:53;0.60;;;0.60;;
24249;SDS011;12379;49.820;8.648;2023-01-01T07:16:19;0.50;;;0.50;;
24249;SDS011;12379;49.820;8.648;2023-01-01T07:18:45;10.90;;;2.43;;
24249;SDS011;12379;49.820;8.648;2023-01-01T07:24:04;1.13;;;1.03;;
24249;SDS011;12379;49.820;8.648;2023-01-01T07:26:30;0.60;;;0.60;;
24249;SDS011;12379;49.820;8.648;2023-01-01T07:28:57;0.70;;;0.70;;
24249;SDS011;12379;49.820;8.648;2023-01-01T07:31:23;0.43;;;0.43;;
24249;SDS011;12379;49.820;8.648;2023-01-01T07:33:48;0.60;;;0.60;;
24249;SDS011;12379;49.820;8.648;2023-01-01T07:36:14;0.50;;;0.50;;
24249;SDS011;12379;49.820;8.648;2023-01-01T07:38:40;7.50;;;0.80;;
24249;SDS011;12379;49.820;8.648;2023-01-01T07:41:05;3.63;;;0.90;;
24249;SDS011;12379;49.820;8.648;2023-01-01T07:43:31;0.40;;;0.40;;
24249;SDS011;12379;49.820;8.648;2023-01-01T07:45:57;1.87;;;1.10;;
24249;SDS011;12379;49.820;8.648;2023-01-01T07:48:23;2.40;;;1.17;;
24249;SDS011;12379;49.820;8.648;2023-01-01T07:50:49;1.50;;;1.17;;
24249;SDS011;12379;49.820;8.648;2023-01-01T07:53:15;3.80;;;0.70;;
24249;SDS011;12379;49.820;8.648;2023-01-01T07:55:40;0.60;;;0.60;;
24249;SDS011;12379;49.820;8.648;2023-01-01T07:58:06;1.53;;;1.43;;
24249;SDS011;12379;49.820;8.648;2023-01-01T08:00:31;0.80;;;0.67;;
24249;SDS011;12379;49.820;8.648;2023-01-01T08:02:57;0.53;;;0.53;;
24249;SDS011;12379;49.820;8.648;2023-01-01T08:05:23;0.50;;;0.50;;
24249;SDS011;12379;49.820;8.648;2023-01-01T08:07:49;3.23;;;0.77;;
24249;SDS011;12379;49.820;8.648;2023-01-01T08:10:15;0.93;;;0.93;;
24249;SDS011;12379;49.820;8.648;2023-01-01T08:12:43;4.97;;;3.27;;
24249;SDS011;12379;49.820;8.648;2023-01-01T08:15:09;8.90;;;1.93;;
24249;SDS011;12379;49.820;8.648;2023-01-01T08:17:35;1.80;;;0.70;;
24249;SDS011;12379;49.820;8.648;2023-01-01T08:20:02;1.50;;;0.90;;
24249;SDS011;12379;49.820;8.648;2023-01-01T08:22:28;0.40;;;0.40;;
24249;SDS011;12379;49.820;8.648;2023-01-01T08:24:53;0.40;;;0.40;;
24249;SDS011;12379;49.820;8.648;2023-01-01T08:27:19;11.53;;;0.70;;
24249;SDS011;12379;49.820;8.648;2023-01-01T08:29:44;0.40;;;0.40;;
24249;SDS011;12379;49.820;8.648;2023-01-01T08:32:13;0.80;;;0.80;;
24249;SDS011;12379;49.820;8.648;2023-01-01T08:34:39;1.53;;;1.47;;
24249;SDS011;12379;49.820;8.648;2023-01-01T08:37:05;5.50;;;0.93;;
24249;SDS011;12379;49.820;8.648;2023-01-01T08:39:31;3.13;;;2.10;;
24249;SDS011;12379;49.820;8.648;2023-01-01T08:41:57;1.77;;;0.90;;
24249;SDS011;12379;49.820;8.648;2023-01-01T08:44:22;0.40;;;0.40;;
24249;SDS011;12379;49.820;8.648;2023-01-01T08:46:48;1.23;;;1.13;;
24249;SDS011;12379;49.820;8.648;2023-01-01T08:49:16;5.70;;;0.90;;
24249;SDS011;12379;49.820;8.648;2023-01-01T08:51:41;1.20;;;1.10;;
24249;SDS011;12379;49.820;8.648;2023-01-01T08:54:07;2.83;;;1.70;;
24249;SDS011;12379;49.820;8.648;2023-01-01T08:56:33;1.57;;;1.30;;
24249;SDS011;12379;49.820;8.648;2023-01-01T08:58:59;0.60;;;0.60;;
24249;SDS011;12379;49.820;8.648;2023-01-01T09:01:24;0.60;;;0.60;;
24249;SDS011;12379;49.820;8.648;2023-01-01T09:03:51;7.17;;;2.37;;
24249;SDS011;12379;49.820;8.648;2023-01-01T09:06:17;11.60;;;0.83;;
24249;SDS011;12379;49.820;8.648;2023-01-01T09:08:43;0.40;;;0.40;;
24249;SDS011;12379;49.820;8.648;2023-01-01T09:11:21;0.50;;;0.50;;
24249;SDS011;12379;49.820;8.648;2023-01-01T09:13:53;3.73;;;1.63;;
24249;SDS011;12379;49.820;8.648;2023-01-01T09:16:19;0.57;;;0.57;;
24249;SDS011;12379;49.820;8.648;2023-01-01T09:18:45;0.60;;;0.60;;
24249;SDS011;12379;49.820;8.648;2023-01-01T09:21:10;0.60;;;0.60;;
24249;SDS011;12379;49.820;8.648;2023-01-01T09:23:36;1.57;;;0.60;;
24249;SDS011;12379;49.820;8.648;2023-01-01T09:26:02;0.50;;;0.50;;
24249;SDS011;12379;49.820;8.648;2023-01-01T09:28:28;2.60;;;1.57;;
24249;SDS011;12379;49.820;8.648;2023-01-01T09:30:54;0.63;;;0.63;;
24249;SDS011;12379;49.820;8.648;2023-01-01T09:33:20;1.13;;;0.83;;
24249;SDS011;12379;49.820;8.648;2023-01-01T09:35:45;6.63;;;1.13;;
24249;SDS011;12379;49.820;8.648;2023-01-01T09:38:11;0.47;;;0.47;;
24249;SDS011;12379;49.820;8.648;2023-01-01T09:46:01;0.50;;;0.50;;
24249;SDS011;12379;49.820;8.648;2023-01-01T09:48:30;0.50;;;0.50;;
24249;SDS011;12379;49.820;8.648;2023-01-01T09:50:57;0.60;;;0.60;;
24249;SDS011;12379;49.820;8.648;2023-01-01T09:53:33;0.53;;;0.53;;
24249;SDS011;12379;49.820;8.648;2023-01-01T09:56:05;0.40;;;0.40;;
24249;SDS011;12379;49.820;8.648;2023-01-01T09:58:38;1.30;;;1.27;;
24249;SDS011;12379;49.820;8.648;2023-01-01T10:04:00;3.23;;;1.17;;
24249;SDS011;12379;49.820;8.648;2023-01-01T10:06:37;0.50;;;0.50;;
24249;SDS011;12379;49.820;8.648;2023-01-01T10:12:19;0.70;;;0.70;;
24249;SDS011;12379;49.820;8.648;2023-01-01T10:15:03;2.43;;;0.77;;
24249;SDS011;12379;49.820;8.648;2023-01-01T10:17:45;0.93;;;0.53;;
24249;SDS011;12379;49.820;8.648;2023-01-01T10:20:22;0.60;;;0.53;;
24249;SDS011;12379;49.820;8.648;2023-01-01T10:23:00;2.07;;;1.37;;
24249;SDS011;12379;49.820;8.648;2023-01-01T10:25:35;0.90;;;0.60;;
24249;SDS011;12379;49.820;8.648;2023-01-01T10:28:06;1.10;;;1.07;;
24249;SDS011;12379;49.820;8.648;2023-01-01T10:30:39;0.40;;;0.40;;
24249;SDS011;12379;49.820;8.648;2023-01-01T10:33:12;15.90;;;1.13;;
24249;SDS011;12379;49.820;8.648;2023-01-01T10:35:39;12.50;;;0.80;;
24249;SDS011;12379;49.820;8.648;2023-01-01T10:38:11;0.50;;;0.47;;
24249;SDS011;12379;49.820;8.648;2023-01-01T10:40:47;1.13;;;0.83;;
24249;SDS011;12379;49.820;8.648;2023-01-01T10:43:13;1.00;;;0.50;;
24249;SDS011;12379;49.820;8.648;2023-01-01T10:45:58;0.60;;;0.60;;
24249;SDS011;12379;49.820;8.648;2023-01-01T10:48:26;0.50;;;0.50;;
24249;SDS011;12379;49.820;8.648;2023-01-01T10:50:55;1.57;;;1.13;;
24249;SDS011;12379;49.820;8.648;2023-01-01T10:56:12;0.70;;;0.70;;
24249;SDS011;12379;49.820;8.648;2023-01-01T10:58:40;0.70;;;0.70;;
24249;SDS011;12379;49.820;8.648;2023-01-01T11:01:32;1.00;;;1.00;;
24249;SDS011;12379;49.820;8.648;2023-01-01T11:06:31;0.90;;;0.90;;
24249;SDS011;12379;49.820;8.648;2023-01-01T11:08:59;1.10;;;0.83;;
24249;SDS011;12379;49.820;8.648;2023-01-01T11:14:11;0.40;;;0.37;;
24249;SDS011;12379;49.820;8.648;2023-01-01T11:16:44;0.50;;;0.50;;
24249;SDS011;12379;49.820;8.648;2023-01-01T11:19:11;0.40;;;0.40;;
24249;SDS011;12379;49.820;8.648;2023-01-01T11:21:46;0.60;;;0.60;;
24249;SDS011;12379;49.820;8.648;2023-01-01T11:24:22;5.13;;;1.70;;
24249;SDS011;12379;49.820;8.648;2023-01-01T11:26:49;0.50;;;0.50;;
24249;SDS011;12379;49.820;8.648;2023-01-01T11:29:28;0.50;;;0.50;;
24249;SDS011;12379;49.820;8.648;2023-01-01T11:31:55;0.60;;;0.60;;
24249;SDS011;12379;49.820;8.648;2023-01-01T11:34:26;0.57;;;0.57;;
24249;SDS011;12379;49.820;8.648;2023-01-01T11:37:07;1.23;;;0.77;;
24249;SDS011;12379;49.820;8.648;2023-01-01T11:39:48;1.63;;;0.97;;
24249;SDS011;12379;49.820;8.648;2023-01-01T11:42:19;0.90;;;0.83;;
24249;SDS011;12379;49.820;8.648;2023-01-01T11:44:54;0.80;;;0.60;;
24249;SDS011;12379;49.820;8.648;2023-01-01T11:47:55;0.67;;;0.67;;
24249;SDS011;12379;49.820;8.648;2023-01-01T11:50:34;0.40;;;0.40;;
24249;SDS011;12379;49.820;8.648;2023-01-01T11:53:24;0.70;;;0.70;;
24249;SDS011;12379;49.820;8.648;2023-01-01T11:56:01;0.80;;;0.80;;
24249;SDS011;12379;49.820;8.648;2023-01-01T12:01:13;1.10;;;1.00;;
24249;SDS011;12379;49.820;8.648;2023-01-01T12:03:48;5.30;;;0.93;;
24249;SDS011;12379;49.820;8.648;2023-01-01T12:08:50;8.63;;;1.10;;
24249;SDS011;12379;49.820;8.648;2023-01-01T12:11:28;1.80;;;1.07;;
24249;SDS011;12379;49.820;8.648;2023-01-01T12:19:49;1.70;;;1.43;;
24249;SDS011;12379;49.820;8.648;2023-01-01T12:22:30;0.60;;;0.60;;
24249;SDS011;12379;49.820;8.648;2023-01-01T12:24:56;1.67;;;0.90;;
24249;SDS011;12379;49.820;8.648;2023-01-01T12:36:18;0.50;;;0.47;;
24249;SDS011;12379;49.820;8.648;2023-01-01T12:42:24;0.93;;;0.93;;
24249;SDS011;12379;49.820;8.648;2023-01-01T12:45:14;4.63;;;1.63;;
24249;SDS011;12379;49.820;8.648;2023-01-01T12:47:44;4.70;;;0.93;;
24249;SDS011;12379;49.820;8.648;2023-01-01T12:50:35;3.77;;;2.00;;
24249;SDS011;12379;49.820;8.648;2023-01-01T12:56:04;0.83;;;0.80;;
24249;SDS011;12379;49.820;8.648;2023-01-01T12:59:14;0.63;;;0.63;;
24249;SDS011;12379;49.820;8.648;2023-01-01T13:01:46;0.57;;;0.57;;
24249;SDS011;12379;49.820;8.648;2023-01-01T13:04:16;5.60;;;1.70;;
24249;SDS011;12379;49.820;8.648;2023-01-01T13:06:48;1.63;;;1.57;;
24249;SDS011;12379;49.820;8.648;2023-01-01T13:09:25;1.67;;;1.03;;
24249;SDS011;12379;49.820;8.648;2023-01-01T13:12:00;0.50;;;0.50;;
24249;SDS011;12379;49.820;8.648;2023-01-01T13:14:29;0.60;;;0.60;;
24249;SDS011;12379;49.820;8.648;2023-01-01T13:17:00;1.67;;;1.23;;
24249;SDS011;12379;49.820;8.648;2023-01-01T13:19:32;1.43;;;0.83;;
24249;SDS011;12379;49.820;8.648;2023-01-01T13:25:02;5.57;;;2.03;;
24249;SDS011;12379;49.820;8.648;2023-01-01T13:31:06;2.03;;;1.83;;
24249;SDS011;12379;49.820;8.648;2023-01-01T13:46:38;0.50;;;0.50;;
24249;SDS011;12379;49.820;8.648;2023-01-01T13:49:28;1.70;;;1.13;;
24249;SDS011;12379;49.820;8.648;2023-01-01T13:52:24;0.87;;;0.60;;
24249;SDS011;12379;49.820;8.648;2023-01-01T14:03:35;0.50;;;0.50;;
24249;SDS011;12379;49.820;8.648;2023-01-01T14:06:09;2.40;;;0.60;;
24249;SDS011;12379;49.820;8.648;2023-01-01T14:08:42;1.37;;;1.27;;
24249;SDS011;12379;49.820;8.648;2023-01-01T14:11:19;1.63;;;1.57;;
24249;SDS011;12379;49.820;8.648;2023-01-01T14:13:47;2.67;;;0.60;;
24249;SDS011;12379;49.820;8.648;2023-01-01T14:16:13;0.40;;;0.40;;
24249;SDS011;12379;49.820;8.648;2023-01-01T14:18:50;1.27;;;0.90;;
24249;SDS011;12379;49.820;8.648;2023-01-01T14:21:19;5.60;;;1.10;;
24249;SDS011;12379;49.820;8.648;2023-01-01T14:23:55;1.10;;;1.00;;
24249;SDS011;12379;49.820;8.648;2023-01-01T14:26:24;0.73;;;0.70;;
24249;SDS011;12379;49.820;8.648;2023-01-01T14:28:52;1.93;;;1.80;;
24249;SDS011;12379;49.820;8.648;2023-01-01T14:31:23;2.23;;;0.90;;
24249;SDS011;12379;49.820;8.648;2023-01-01T14:33:55;1.77;;;1.67;;
24249;SDS011;12379;49.820;8.648;2023-01-01T14:38:51;2.40;;;1.43;;
24249;SDS011;12379;49.820;8.648;2023-01-01T14:41:37;1.07;;;1.03;;
24249;SDS011;12379;49.820;8.648;2023-01-01T14:44:11;0.83;;;0.80;;
24249;SDS011;12379;49.820;8.648;2023-01-01T14:46:38;1.63;;;1.53;;
24249;SDS011;12379;49.820;8.648;2023-01-01T14:49:07;1.37;;;1.27;;
24249;SDS011;12379;49.820;8.648;2023-01-01T14:51:34;0.60;;;0.57;;
24249;SDS011;12379;49.820;8.648;2023-01-01T14:54:01;1.40;;;1.30;;
24249;SDS011;12379;49.820;8.648;2023-01-01T15:01:46;2.13;;;1.30;;
24249;SDS011;12379;49.820;8.648;2023-01-01T15:04:37;4.57;;;1.77;;
24249;SDS011;12379;49.820;8.648;2023-01-01T15:07:03;0.73;;;0.73;;
24249;SDS011;12379;49.820;8.648;2023-01-01T15:09:30;0.50;;;0.50;;
24249;SDS011;12379;49.820;8.648;2023-01-01T15:11:57;1.90;;;1.10;;
24249;SDS011;12379;49.820;8.648;2023-01-01T15:17:19;4.20;;;2.10;;
24249;SDS011;12379;49.820;8.648;2023-01-01T15:20:32;7.47;;;2.73;;
24249;SDS011;12379;49.820;8.648;2023-01-01T15:22:46;4.43;;;2.03;;
24249;SDS011;12379;49.820;8.648;2023-01-01T15:25:12;1.20;;;1.10;;
24249;SDS011;12379;49.820;8.648;2023-01-01T15:27:40;2.73;;;1.00;;
24249;SDS011;12379;49.820;8.648;2023-01-01T15:30:20;0.80;;;0.60;;
24249;SDS011;12379;49.820;8.648;2023-01-01T15:32:51;3.53;;;1.03;;
24249;SDS011;12379;49.820;8.648;2023-01-01T15:35:18;2.10;;;1.43;;
24249;SDS011;12379;49.820;8.648;2023-01-01T15:40:48;3.77;;;2.73;;
24249;SDS011;12379;49.820;8.648;2023-01-01T15:46:09;4.50;;;2.20;;
24249;SDS011;12379;49.820;8.648;2023-01-01T15:48:48;15.00;;;2.10;;
24249;SDS011;12379;49.820;8.648;2023-01-01T15:54:01;1.90;;;1.73;;
24249;SDS011;12379;49.820;8.648;2023-01-01T15:56:30;0.63;;;0.63;;
24249;SDS011;12379;49.820;8.648;2023-01-01T15:59:00;0.90;;;0.77;;
24249;SDS011;12379;49.820;8.648;2023-01-01T16:01:29;1.80;;;1.70;;
24249;SDS011;12379;49.820;8.648;2023-01-01T16:03:59;1.23;;;1.13;;
24249;SDS011;12379;49.820;8.648;2023-01-01T16:06:41;0.80;;;0.80;;
24249;SDS011;12379;49.820;8.648;2023-01-01T16:09:12;1.23;;;0.80;;
24249;SDS011;12379;49.820;8.648;2023-01-01T16:11:39;3.60;;;2.53;;
24249;SDS011;12379;49.820;8.648;2023-01-01T16:14:04;0.60;;;0.60;;
24249;SDS011;12379;49.820;8.648;2023-01-01T16:16:30;0.83;;;0.83;;
24249;SDS011;12379;49.820;8.648;2023-01-01T16:18:56;1.30;;;0.97;;
24249;SDS011;12379;49.820;8.648;2023-01-01T16:21:23;2.23;;;1.47;;
24249;SDS011;12379;49.820;8.648;2023-01-01T16:24:02;0.97;;;0.97;;
24249;SDS011;12379;49.820;8.648;2023-01-01T16:26:28;0.80;;;0.80;;
24249;SDS011;12379;49.820;8.648;2023-01-01T16:28:53;0.60;;;0.60;;
24249;SDS011;12379;49.820;8.648;2023-01-01T16:31:23;1.67;;;1.57;;
24249;SDS011;12379;49.820;8.648;2023-01-01T16:33:52;2.70;;;1.70;;
24249;SDS011;12379;49.820;8.648;2023-01-01T16:36:20;2.10;;;1.43;;
24249;SDS011;12379;49.820;8.648;2023-01-01T16:38:46;2.73;;;1.80;;
24249;SDS011;12379;49.820;8.648;2023-01-01T16:41:13;1.10;;;1.00;;
24249;SDS011;12379;49.820;8.648;2023-01-01T16:43:40;0.53;;;0.53;;
24249;SDS011;12379;49.820;8.648;2023-01-01T16:46:06;1.57;;;1.47;;
24249;SDS011;12379;49.820;8.648;2023-01-01T16:48:31;2.13;;;2.03;;
24249;SDS011;12379;49.820;8.648;2023-01-01T16:50:57;1.33;;;0.70;;
24249;SDS011;12379;49.820;8.648;2023-01-01T16:53:22;0.50;;;0.50;;
24249;SDS011;12379;49.820;8.648;2023-01-01T16:55:51;0.80;;;0.80;;
24249;SDS011;12379;49.820;8.648;2023-01-01T16:58:17;3.57;;;2.70;;
24249;SDS011;12379;49.820;8.648;2023-01-01T17:00:44;0.93;;;0.83;;
24249;SDS011;12379;49.820;8.648;2023-01-01T17:03:12;0.80;;;0.80;;
24249;SDS011;12379;49.820;8.648;2023-01-01T17:05:38;0.93;;;0.87;;
24249;SDS011;12379;49.820;8.648;2023-01-01T17:08:03;3.80;;;0.60;;
24249;SDS011;12379;49.820;8.648;2023-01-01T17:10:29;1.13;;;1.13;;
24249;SDS011;12379;49.820;8.648;2023-01-01T17:12:55;0.90;;;0.90;;
24249;SDS011;12379;49.820;8.648;2023-01-01T17:15:25;5.00;;;0.80;;
24249;SDS011;12379;49.820;8.648;2023-01-01T17:17:54;2.50;;;2.30;;